MST,Max TemperatureF,Mean TemperatureF,Min TemperatureF,Max Dew PointF,MeanDew PointF,Min DewpointF,Max Humidity, Mean Humidity, Min Humidity, Max Sea Level PressureIn, Mean Sea Level PressureIn, Min Sea Level PressureIn, Max VisibilityMiles, Mean VisibilityMiles, Min VisibilityMiles, Max Wind SpeedMPH, Mean Wind SpeedMPH, Max Gust SpeedMPH,PrecipitationIn, CloudCover, Events, WindDirDegrees
2013-1-1,26,14,3,8,2,-4,90,64,35,30.20,30.11,30.02,10,10,7,15,4,21,0.00,2,,283
2013-1-2,28,14,1,4,-2,-7,73,55,28,30.30,30.20,30.13,10,10,5,12,4,16,0.00,0,,288
2013-1-3,30,14,-3,0,-6,-11,73,49,21,30.38,30.31,30.23,10,10,10,15,4,21,0.00,0,,261
2013-1-4,40,22,4,10,2,-6,63,44,23,30.31,30.19,30.07,10,10,10,12,3,17,0.00,0,,263
2013-1-5,43,28,12,5,0,-3,58,36,16,30.42,30.27,30.14,10,10,7,16,7,23,0.00,0,,251
2013-1-6,47,29,11,3,-2,-6,52,32,12,30.41,30.26,30.14,10,10,10,14,5,23,0.00,0,,308
2013-1-7,43,30,16,4,2,0,51,37,17,30.19,30.09,30.00,10,10,7,17,6,21,0.00,0,,316
2013-1-8,45,32,19,13,5,-4,63,34,21,30.39,30.13,30.00,10,10,10,14,6,17,0.00,0,,298
2013-1-9,49,32,15,12,8,6,71,45,19,30.50,30.37,30.24,10,10,10,12,5,,0.00,0,,304
2013-1-10,42,28,14,18,7,-1,63,44,16,30.20,29.91,29.66,10,10,10,17,6,29,0.00,0,,260
2013-1-11,32,22,12,24,6,-9,85,50,27,29.83,29.62,29.40,10,9,1,28,16,38,0.00,6,,234
2013-1-12,20,10,-1,-4,-9,-12,69,46,24,29.91,29.84,29.79,10,10,10,16,9,23,0.00,0,,253
2013-1-13,16,5,-6,3,-9,-16,79,57,35,29.97,29.92,29.87,10,10,4,17,4,26,0.00,4,,232
2013-1-14,18,9,0,5,-3,-9,84,66,47,30.03,29.98,29.90,10,8,2,15,3,18,0.00,5,,295
2013-1-15,31,13,-5,7,-3,-15,65,48,30,30.25,30.13,30.03,10,10,10,14,6,25,0.00,3,,283
2013-1-16,46,29,12,17,11,5,76,55,28,30.47,30.33,30.25,10,10,3,13,5,18,0.00,0,,245
2013-1-17,47,30,13,15,13,8,82,60,27,30.57,30.48,30.40,10,10,10,16,2,28,0.00,0,,285
2013-1-18,46,32,19,14,8,5,61,39,20,30.41,30.34,30.26,10,10,10,21,12,28,0.00,0,,284
2013-1-19,51,33,15,8,2,-2,54,29,13,30.46,30.37,30.31,10,10,10,17,6,24,0.00,0,,271
2013-1-20,50,35,20,5,-2,-5,51,24,10,30.37,30.30,30.24,10,10,10,22,10,25,0.00,0,,275
2013-1-21,51,36,20,5,2,-5,50,29,14,30.35,30.31,30.24,10,10,10,16,8,23,0.00,0,,297
2013-1-22,58,42,26,0,-9,-15,28,14,5,30.42,30.34,30.30,10,10,10,23,9,32,0.00,0,,295
2013-1-23,61,42,23,-6,-11,-16,24,13,4,30.45,30.39,30.32,10,10,10,20,11,26,0.00,0,,294
2013-1-24,55,43,31,27,11,-10,58,29,11,30.36,30.27,30.20,10,10,10,33,15,45,0.00,1,,248
2013-1-25,49,39,29,31,27,24,79,59,42,30.34,30.28,30.22,10,10,10,25,10,33,0.00,2,,223
2013-1-26,47,40,32,36,30,25,91,68,49,30.22,30.06,29.88,10,10,10,18,9,25,0.00,5,,236
2013-1-27,51,44,36,32,27,19,72,54,35,29.95,29.91,29.85,10,10,10,24,11,37,0.00,3,,213
2013-1-28,46,35,23,31,23,9,81,63,46,29.92,29.77,29.67,10,10,2,21,10,33,0.00,5,,215
2013-1-29,28,21,13,11,-2,-20,55,37,14,29.94,29.74,29.64,10,10,10,21,10,25,0.00,3,,302
2013-1-30,30,18,6,9,0,-8,55,38,27,30.06,29.98,29.92,10,10,7,38,13,50,0.00,2,,267
2013-1-31,43,36,29,13,10,6,49,37,26,30.26,30.17,30.05,10,10,10,33,20,54,0.00,1,,252